Погода Почигаевона 2 недели

Тверская область, Россия

27 мая-09 июня
  • 27мая
    Сегодня
    +11°
    +24°
    Небольшая облачность
    ВремяПогодаТемператураВлажностьДавлениеВетер, м/сВероятность осадков
    00:00Небольшая облачность+13°C88 %752 мм2.4 м/с2 %
    03:00Практически безоблачно+10°C58 %752 мм3.1 м/с2 %
    06:00Пасмурно, сплошная облачность+10°C63 %753 мм2.2 м/с1 %
    09:00Ясно и безоблачно+18°C55 %753 мм2.2 м/с2 %
    12:00Небольшая облачность+22°C44 %753 мм2.0 м/с2 %
    15:00Небольшая облачность+24°C37 %752 мм1.2 м/с2 %
    18:00Практически безоблачно+24°C38 %751 мм1.8 м/с2 %
    21:00Ясно и безоблачно+20°C52 %751 мм0.9 м/с2 %
  • 28мая
    Вторник
    +11°
    +25°
    Облачно с прояснениями
    ВремяПогодаТемператураВлажностьДавлениеВетер, м/сВероятность осадков
    00:00Ясно и безоблачно+13°C59 %750 мм3.3 м/с2 %
    03:00Практически безоблачно+11°C63 %750 мм2.6 м/с2 %
    06:00Ясно и безоблачно+13°C69 %750 мм2.1 м/с2 %
    09:00Ясно и безоблачно+20°C56 %750 мм1.7 м/с2 %
    12:00Практически безоблачно+24°C43 %750 мм1.6 м/с1 %
    15:00Облачно с прояснениями+24°C40 %749 мм2.7 м/с4 %
    18:00Ясно и безоблачно+24°C41 %748 мм1.8 м/с2 %
    21:00Ясно и безоблачно+23°C47 %747 мм0.7 м/с2 %
  • 29мая
    Среда
    +11°
    +26°
    Практически безоблачно
    ВремяПогодаТемператураВлажностьДавлениеВетер, м/сВероятность осадков
    00:00Практически безоблачно+14°C67 %747 мм2.0 м/с2 %
    03:00Небольшая облачность+12°C74 %746 мм0.5 м/с2 %
    06:00Практически безоблачно+14°C78 %746 мм1.1 м/с2 %
    09:00Небольшая облачность+22°C55 %746 мм0.5 м/с2 %
    12:00Небольшая облачность+26°C36 %746 мм1.1 м/с4 %
    15:00Практически безоблачно+26°C35 %745 мм1.9 м/с7 %
    18:00Ясно и безоблачно+25°C39 %744 мм1.7 м/с13 %
    21:00Ясно и безоблачно+21°C59 %744 мм2.7 м/с6 %
  • 30мая
    Четверг
    +13°
    +27°
    Облачно с прояснениями
    ВремяПогодаТемператураВлажностьДавлениеВетер, м/сВероятность осадков
    00:00Ясно и безоблачно+15°C77 %743 мм2.4 м/с2 %
    03:00Ясно и безоблачно+12°C88 %743 мм2.1 м/с2 %
    06:00Практически безоблачно+14°C84 %743 мм1.9 м/с2 %
    09:00Практически безоблачно+22°C63 %743 мм1.5 м/с2 %
    12:00Практически безоблачно+26°C41 %743 мм1.6 м/с15 %
    15:00Облачно с прояснениями+25°C39 %742 мм3.1 м/с19 %
    18:00Облачно с прояснениями+24°C46 %742 мм1.1 м/с26 %
    21:00Практически безоблачно+21°C59 %743 мм2.4 м/с2 %
  • 31мая
    Пятница
    +12°
    +28°
    Небольшая облачность
    ВремяПогодаТемператураВлажностьДавлениеВетер, м/сВероятность осадков
    00:00Ясно и безоблачно+16°C71 %742 мм2.2 м/с2 %
    03:00Ясно и безоблачно+14°C80 %743 мм2.2 м/с2 %
    06:00Небольшая облачность+14°C80 %743 мм1.8 м/с2 %
    09:00Облачно с прояснениями+22°C46 %744 мм1.9 м/с2 %
    12:00Облачно с прояснениями+26°C30 %744 мм3.1 м/с18 %
    15:00Небольшая облачность+27°C30 %743 мм2.5 м/с30 %
    18:00Небольшая облачность+27°C31 %743 мм2.6 м/с30 %
    21:00Практически безоблачно+21°C62 %744 мм2.0 м/с6 %
Мы используем cookies
Соглашаюсь